createdAt,value
2022-11-24T00:01:31.546Z,5.20
2022-11-24T00:04:06.226Z,5.20
2022-11-24T00:06:36.216Z,5.60
2022-11-24T00:09:05.256Z,5.60
2022-11-24T00:11:36.164Z,5.40
2022-11-24T00:14:05.371Z,5.50
2022-11-24T00:16:37.814Z,5.40
2022-11-24T00:19:15.825Z,5.70
2022-11-24T00:21:45.452Z,5.40
2022-11-24T00:24:12.592Z,5.40
2022-11-24T00:26:39.697Z,5.30
2022-11-24T00:29:09.699Z,5.60
2022-11-24T00:31:42.128Z,5.30
2022-11-24T00:34:14.870Z,5.30
2022-11-24T00:36:42.576Z,5.40
2022-11-24T00:39:15.224Z,5.40
2022-11-24T00:41:43.207Z,5.40
2022-11-24T00:44:10.389Z,5.40
2022-11-24T00:46:37.801Z,5.40
2022-11-24T00:49:05.580Z,5.30
2022-11-24T00:51:32.804Z,5.50
2022-11-24T00:54:02.042Z,5.50
2022-11-24T00:56:30.454Z,5.40
2022-11-24T00:58:57.950Z,5.20
2022-11-24T01:01:28.549Z,5.40
2022-11-24T01:03:55.892Z,5.50
2022-11-24T01:06:26.363Z,5.40
2022-11-24T01:08:54.261Z,5.20
2022-11-24T01:11:25.392Z,5.80
2022-11-24T01:13:59.145Z,5.40
2022-11-24T01:16:35.828Z,5.30
2022-11-24T01:19:03.972Z,5.40
2022-11-24T01:21:30.950Z,5.40
2022-11-24T01:23:58.084Z,5.40
2022-11-24T01:26:25.150Z,5.70
2022-11-24T01:28:57.456Z,5.40
2022-11-24T01:31:26.392Z,5.40
2022-11-24T01:33:54.434Z,5.50
2022-11-24T01:36:22.813Z,5.60
2022-11-24T01:38:49.877Z,5.50
2022-11-24T01:41:24.134Z,5.40
2022-11-24T01:43:53.583Z,5.30
2022-11-24T01:46:36.181Z,5.30
2022-11-24T01:49:09.238Z,5.40
2022-11-24T01:51:54.384Z,5.40
2022-11-24T01:54:29.001Z,5.40
2022-11-24T01:57:06.443Z,5.00
2022-11-24T01:59:33.613Z,5.40
2022-11-24T02:02:01.328Z,5.40
2022-11-24T02:04:34.471Z,5.40
2022-11-24T02:07:05.763Z,5.30
2022-11-24T02:09:56.071Z,5.00
2022-11-24T02:12:26.627Z,5.30
2022-11-24T02:14:55.894Z,5.30
2022-11-24T02:17:23.157Z,5.40
2022-11-24T02:20:02.114Z,5.10
2022-11-24T02:22:57.080Z,5.60
2022-11-24T02:25:46.770Z,5.50
2022-11-24T02:28:20.078Z,5.40
2022-11-24T02:30:47.880Z,5.30
2022-11-24T02:33:15.377Z,5.30
2022-11-24T02:35:42.901Z,5.20
2022-11-24T02:38:14.207Z,5.40
2022-11-24T02:40:50.446Z,5.00
2022-11-24T02:43:23.408Z,5.40
2022-11-24T02:45:50.447Z,5.40
2022-11-24T02:48:17.547Z,5.10
2022-11-24T02:50:44.690Z,5.30
2022-11-24T02:53:11.673Z,5.20
2022-11-24T02:55:38.720Z,5.00
2022-11-24T02:58:05.700Z,5.40
2022-11-24T03:00:32.761Z,5.30
2022-11-24T03:02:59.893Z,4.90
2022-11-24T03:05:27.174Z,5.00
2022-11-24T03:07:54.322Z,5.20
2022-11-24T03:10:21.468Z,5.30
2022-11-24T03:12:48.443Z,5.30
2022-11-24T03:15:15.419Z,5.20
2022-11-24T03:17:42.432Z,5.10
2022-11-24T03:20:10.470Z,5.10
2022-11-24T03:22:37.862Z,4.80
2022-11-24T03:25:05.593Z,5.30
2022-11-24T03:27:32.764Z,5.10
2022-11-24T03:29:59.735Z,4.70
2022-11-24T03:32:26.794Z,5.20
2022-11-24T03:34:53.801Z,5.00
2022-11-24T03:37:21.095Z,4.90
2022-11-24T03:39:48.440Z,5.30
2022-11-24T03:42:15.812Z,4.80
2022-11-24T03:44:42.777Z,5.00
2022-11-24T03:47:12.546Z,4.90
2022-11-24T03:49:41.535Z,4.70
2022-11-24T03:52:09.785Z,4.90
2022-11-24T03:54:36.801Z,5.00
2022-11-24T03:57:04.067Z,4.90
2022-11-24T03:59:31.052Z,4.80
2022-11-24T04:01:58.101Z,4.90
2022-11-24T04:04:25.123Z,4.80
2022-11-24T04:06:52.101Z,4.80
2022-11-24T04:09:19.071Z,4.80
2022-11-24T04:12:04.307Z,4.70
2022-11-24T04:14:31.436Z,4.80
2022-11-24T04:16:58.545Z,5.00
2022-11-24T04:19:25.498Z,4.80
2022-11-24T04:21:52.477Z,4.70
2022-11-24T04:24:19.569Z,4.80
2022-11-24T04:26:46.541Z,5.00
2022-11-24T04:29:13.653Z,4.60
2022-11-24T04:31:40.725Z,4.70
2022-11-24T04:34:07.770Z,4.70
2022-11-24T04:36:34.780Z,4.60
2022-11-24T04:39:24.332Z,4.70
2022-11-24T04:41:48.703Z,4.70
2022-11-24T04:44:15.752Z,4.80
2022-11-24T04:46:42.804Z,4.70
2022-11-24T04:49:12.517Z,4.70
2022-11-24T04:51:40.302Z,4.70
2022-11-24T04:54:11.238Z,4.60
2022-11-24T04:56:38.445Z,4.80
2022-11-24T04:59:08.475Z,4.20
2022-11-24T05:01:38.362Z,4.70
2022-11-24T05:04:05.502Z,4.50
2022-11-24T05:06:33.250Z,4.40
2022-11-24T05:09:00.248Z,4.20
2022-11-24T05:11:27.214Z,4.50
2022-11-24T05:13:54.259Z,4.50
2022-11-24T05:16:21.253Z,4.10
2022-11-24T05:18:48.308Z,4.30
2022-11-24T05:21:15.495Z,4.20
2022-11-24T05:23:42.462Z,4.60
2022-11-24T05:26:09.490Z,4.50
2022-11-24T05:28:36.434Z,4.10
2022-11-24T05:31:04.805Z,4.50
2022-11-24T05:33:33.548Z,4.40
2022-11-24T05:36:03.665Z,4.60
2022-11-24T05:38:32.104Z,4.60
2022-11-24T05:41:06.266Z,4.70
2022-11-24T05:43:33.297Z,4.10
2022-11-24T05:46:01.773Z,4.40
2022-11-24T05:48:28.734Z,4.20
2022-11-24T05:50:59.229Z,4.30
2022-11-24T05:53:27.060Z,4.60
2022-11-24T05:55:56.754Z,4.60
2022-11-24T05:58:23.710Z,4.20
2022-11-24T06:00:50.745Z,4.30
2022-11-24T06:03:17.750Z,4.20
2022-11-24T06:05:47.450Z,4.50
2022-11-24T06:08:14.907Z,4.20
2022-11-24T06:10:42.403Z,4.40
2022-11-24T06:13:09.560Z,4.50
2022-11-24T06:15:37.813Z,4.20
2022-11-24T06:18:04.973Z,4.40
2022-11-24T06:20:33.109Z,4.30
2022-11-24T06:23:01.322Z,4.20
2022-11-24T06:25:29.171Z,3.90
2022-11-24T06:27:56.388Z,4.10
2022-11-24T06:30:23.528Z,4.20
2022-11-24T06:32:55.405Z,4.20
2022-11-24T06:35:22.396Z,4.50
2022-11-24T06:37:49.376Z,4.20
2022-11-24T06:40:16.912Z,4.10
2022-11-24T06:42:51.694Z,4.10
2022-11-24T06:45:18.914Z,4.00
2022-11-24T06:47:45.886Z,4.10
2022-11-24T06:50:12.785Z,4.00
2022-11-24T06:52:39.757Z,4.50
2022-11-24T06:55:07.580Z,4.50
2022-11-24T06:57:35.483Z,4.50
2022-11-24T07:00:05.460Z,4.30
2022-11-24T07:02:32.585Z,4.50
2022-11-24T07:04:59.813Z,4.10
2022-11-24T07:07:27.071Z,4.50
2022-11-24T07:09:54.162Z,4.30
2022-11-24T07:12:21.207Z,4.40
2022-11-24T07:14:48.173Z,4.50
2022-11-24T07:17:15.233Z,4.40
2022-11-24T07:19:43.548Z,4.40
2022-11-24T07:22:11.520Z,4.70
2022-11-24T07:24:38.961Z,4.40
2022-11-24T07:27:08.578Z,4.40
2022-11-24T07:29:35.642Z,4.70
2022-11-24T07:32:05.648Z,5.10
2022-11-24T07:34:33.316Z,4.40
2022-11-24T07:37:00.561Z,4.80
2022-11-24T07:39:27.669Z,4.70
2022-11-24T07:41:54.911Z,4.80
2022-11-24T07:44:21.974Z,4.80
2022-11-24T07:46:51.277Z,4.90
2022-11-24T07:49:19.370Z,5.20
2022-11-24T07:51:46.505Z,4.90
2022-11-24T07:54:13.469Z,5.30
2022-11-24T07:56:40.435Z,5.00
2022-11-24T07:59:07.507Z,5.00
2022-11-24T08:01:34.810Z,5.40
2022-11-24T08:04:02.506Z,5.10
2022-11-24T08:06:37.427Z,5.40
2022-11-24T08:09:06.524Z,5.50
2022-11-24T08:11:34.670Z,5.50
2022-11-24T08:14:01.658Z,5.20
2022-11-24T08:16:28.731Z,5.50
2022-11-24T08:18:56.349Z,5.40
2022-11-24T08:21:26.023Z,5.50
2022-11-24T08:23:58.148Z,5.30
2022-11-24T08:26:25.887Z,5.30
2022-11-24T08:28:57.026Z,5.40
2022-11-24T08:31:27.513Z,5.10
2022-11-24T08:33:56.272Z,5.30
2022-11-24T08:36:23.305Z,5.30
2022-11-24T08:38:59.687Z,5.50
2022-11-24T08:41:29.153Z,5.40
2022-11-24T08:43:56.461Z,5.40
2022-11-24T08:46:24.008Z,5.70
2022-11-24T08:48:53.528Z,5.40
2022-11-24T08:51:25.100Z,5.70
2022-11-24T08:54:01.228Z,5.80
2022-11-24T08:56:31.530Z,5.50
2022-11-24T08:58:59.921Z,5.90
2022-11-24T09:01:30.614Z,5.70
2022-11-24T09:03:58.686Z,5.90
2022-11-24T09:06:30.951Z,5.50
2022-11-24T09:08:59.985Z,5.70
2022-11-24T09:11:27.719Z,5.70
2022-11-24T09:13:58.379Z,5.90
2022-11-24T09:16:29.368Z,5.70
2022-11-24T09:19:03.706Z,5.80
2022-11-24T09:21:34.495Z,5.80
2022-11-24T09:24:01.849Z,5.90
2022-11-24T09:26:32.560Z,6.20
2022-11-24T09:29:02.625Z,5.90
2022-11-24T09:31:34.613Z,5.80
2022-11-24T09:34:05.022Z,6.50
2022-11-24T09:36:32.313Z,6.30
2022-11-24T09:39:00.211Z,6.70
2022-11-24T09:41:38.323Z,6.70
2022-11-24T09:44:13.310Z,6.70
2022-11-24T09:47:14.544Z,6.50
2022-11-24T09:49:51.662Z,6.80
2022-11-24T09:52:33.356Z,6.60
2022-11-24T09:55:04.904Z,6.40
2022-11-24T09:57:38.766Z,6.50
2022-11-24T10:00:13.953Z,6.60
2022-11-24T10:02:40.998Z,6.70
2022-11-24T10:05:09.908Z,6.60
2022-11-24T10:08:13.710Z,6.50
2022-11-24T10:10:59.628Z,7.00
2022-11-24T10:14:22.332Z,7.00
2022-11-24T10:17:38.030Z,7.20
2022-11-24T10:20:51.462Z,7.20
2022-11-24T10:23:55.166Z,7.30
2022-11-24T10:26:43.312Z,7.90
2022-11-24T10:29:21.456Z,7.90
2022-11-24T10:31:54.561Z,7.90
2022-11-24T10:34:46.099Z,8.10
2022-11-24T10:37:36.922Z,8.10
2022-11-24T10:40:48.657Z,8.40
2022-11-24T10:43:13.166Z,8.30
2022-11-24T10:45:41.305Z,8.60
2022-11-24T10:48:24.124Z,8.50
2022-11-24T10:50:56.640Z,8.60
2022-11-24T10:53:36.045Z,8.70
2022-11-24T10:56:05.979Z,8.80
2022-11-24T10:58:39.137Z,8.80
2022-11-24T11:01:15.261Z,9.10
2022-11-24T11:04:19.159Z,8.80
2022-11-24T11:06:46.181Z,8.80
2022-11-24T11:09:22.336Z,8.90
2022-11-24T11:11:53.033Z,9.30
2022-11-24T11:14:33.975Z,9.30
2022-11-24T11:17:00.999Z,8.90
2022-11-24T11:19:54.393Z,8.80
2022-11-24T11:22:35.884Z,8.70
2022-11-24T11:25:35.479Z,8.90
2022-11-24T11:28:25.852Z,8.90
2022-11-24T11:31:17.223Z,8.80
2022-11-24T11:34:23.227Z,8.90
2022-11-24T11:36:56.399Z,8.40
2022-11-24T11:39:32.828Z,8.20
2022-11-24T11:43:00.669Z,8.20
2022-11-24T11:45:35.407Z,7.70
2022-11-24T11:48:02.891Z,8.00
2022-11-24T11:51:22.767Z,8.00
2022-11-24T11:54:32.981Z,8.00
2022-11-24T11:57:15.150Z,7.90
2022-11-24T12:00:16.090Z,8.00
2022-11-24T12:03:09.252Z,7.90
2022-11-24T12:05:42.114Z,8.00
2022-11-24T12:08:29.065Z,7.80
2022-11-24T12:11:35.230Z,7.90
2022-11-24T12:14:31.390Z,7.90
2022-11-24T12:17:15.491Z,7.80
2022-11-24T12:20:26.476Z,7.60
2022-11-24T12:23:21.187Z,7.60
2022-11-24T12:26:18.701Z,7.60
2022-11-24T12:29:24.231Z,7.70
2022-11-24T12:32:30.920Z,7.60
2022-11-24T12:35:06.911Z,7.60
2022-11-24T12:38:04.323Z,7.60
2022-11-24T12:44:03.386Z,7.60
2022-11-24T12:47:08.195Z,7.60
2022-11-24T12:50:08.212Z,7.50
2022-11-24T12:52:48.587Z,7.50
2022-11-24T12:55:23.189Z,7.60
2022-11-24T12:58:17.024Z,7.50
2022-11-24T13:01:16.192Z,7.50
2022-11-24T13:04:05.140Z,7.50
2022-11-24T13:06:53.364Z,7.40
2022-11-24T13:09:20.493Z,7.50
2022-11-24T13:12:05.767Z,7.40
2022-11-24T13:14:38.148Z,7.40
2022-11-24T13:17:37.133Z,7.00
2022-11-24T13:20:39.006Z,7.00
2022-11-24T13:23:22.621Z,7.10
2022-11-24T13:26:48.346Z,7.40
2022-11-24T13:29:40.799Z,7.40
2022-11-24T13:32:11.839Z,7.10
2022-11-24T13:34:45.888Z,7.10
2022-11-24T13:37:31.272Z,7.20
2022-11-24T13:40:22.603Z,7.20
2022-11-24T13:43:00.430Z,7.10
2022-11-24T13:45:41.120Z,7.20
2022-11-24T13:48:20.812Z,7.10
2022-11-24T13:50:54.286Z,6.80
2022-11-24T13:53:46.108Z,6.80
2022-11-24T13:56:13.011Z,7.10
2022-11-24T13:59:11.799Z,7.00
2022-11-24T14:01:40.975Z,6.80
2022-11-24T14:04:43.200Z,6.70
2022-11-24T14:07:15.243Z,6.90
2022-11-24T14:09:42.359Z,7.00
2022-11-24T14:12:15.635Z,7.00
2022-11-24T14:14:44.875Z,7.10
2022-11-24T14:17:22.731Z,6.90
2022-11-24T14:19:58.274Z,6.90
2022-11-24T14:22:46.557Z,6.70
2022-11-24T14:25:32.508Z,6.70
2022-11-24T14:28:02.941Z,6.60
2022-11-24T14:30:30.228Z,6.80
2022-11-24T14:32:59.787Z,6.90
2022-11-24T14:35:30.764Z,6.50
2022-11-24T14:37:59.544Z,6.50
2022-11-24T14:40:51.480Z,6.60
2022-11-24T14:43:33.149Z,6.50
2022-11-24T14:46:08.042Z,6.70
2022-11-24T14:48:51.371Z,6.30
2022-11-24T14:51:37.281Z,6.30
2022-11-24T14:54:18.825Z,6.40
2022-11-24T14:56:59.765Z,6.20
2022-11-24T14:59:31.110Z,6.30
2022-11-24T15:02:01.314Z,5.80
2022-11-24T15:05:01.408Z,6.10
2022-11-24T15:07:29.416Z,6.00
2022-11-24T15:10:02.595Z,6.10
2022-11-24T15:12:39.163Z,6.00
2022-11-24T15:15:15.934Z,5.90
2022-11-24T15:17:52.241Z,5.90
2022-11-24T15:20:30.393Z,5.90
2022-11-24T15:23:29.163Z,5.80
2022-11-24T15:25:57.520Z,5.80
2022-11-24T15:28:28.322Z,5.70
2022-11-24T15:31:00.192Z,5.60
2022-11-24T15:33:27.888Z,5.70
2022-11-24T15:35:55.376Z,5.60
2022-11-24T15:38:23.355Z,5.70
2022-11-24T15:40:53.659Z,5.70
2022-11-24T15:43:38.814Z,5.70
2022-11-24T15:46:07.538Z,5.60
2022-11-24T15:48:35.194Z,5.80
2022-11-24T15:51:06.097Z,5.80
2022-11-24T15:54:00.812Z,5.90
2022-11-24T15:56:36.469Z,5.70
2022-11-24T15:59:04.519Z,5.70
2022-11-24T16:01:38.225Z,5.70
2022-11-24T16:04:09.159Z,5.40
2022-11-24T16:06:36.091Z,5.80
2022-11-24T16:09:03.065Z,5.30
2022-11-24T16:11:30.043Z,5.60
2022-11-24T16:13:57.174Z,5.60
2022-11-24T16:16:25.318Z,5.80
2022-11-24T16:18:53.063Z,5.70
2022-11-24T16:21:20.172Z,5.70
2022-11-24T16:23:47.888Z,5.30
2022-11-24T16:26:14.835Z,5.70
2022-11-24T16:28:42.890Z,5.80
2022-11-24T16:31:10.554Z,5.40
2022-11-24T16:33:40.764Z,5.50
2022-11-24T16:36:08.835Z,5.40
2022-11-24T16:38:35.941Z,5.10
2022-11-24T16:41:02.918Z,5.30
2022-11-24T16:43:32.471Z,5.20
2022-11-24T16:46:18.589Z,5.60
2022-11-24T16:48:50.674Z,5.50
2022-11-24T16:51:22.914Z,5.50
2022-11-24T16:53:59.917Z,5.40
2022-11-24T16:56:28.940Z,5.30
2022-11-24T16:58:56.300Z,5.70
2022-11-24T17:01:23.799Z,5.30
2022-11-24T17:03:50.879Z,5.30
2022-11-24T17:06:18.754Z,5.40
2022-11-24T17:08:47.610Z,5.10
2022-11-24T17:11:19.947Z,5.30
2022-11-24T17:13:49.111Z,5.30
2022-11-24T17:16:22.992Z,5.30
2022-11-24T17:18:50.756Z,5.10
2022-11-24T17:21:24.454Z,5.20
2022-11-24T17:24:00.423Z,5.40
2022-11-24T17:26:28.516Z,5.20
2022-11-24T17:28:57.981Z,5.10
2022-11-24T17:31:35.887Z,5.00
2022-11-24T17:34:06.570Z,5.10
2022-11-24T17:36:35.221Z,5.20
2022-11-24T17:39:04.665Z,5.10
2022-11-24T17:41:32.388Z,5.00
2022-11-24T17:43:59.689Z,5.00
2022-11-24T17:46:29.529Z,4.90
2022-11-24T17:48:56.933Z,5.10
2022-11-24T17:51:26.454Z,5.00
2022-11-24T17:53:55.720Z,4.90
2022-11-24T17:56:27.132Z,4.80
2022-11-24T17:58:57.398Z,4.70
2022-11-24T18:01:26.140Z,4.70
2022-11-24T18:03:54.445Z,4.80
2022-11-24T18:06:25.290Z,4.90
2022-11-24T18:08:54.259Z,4.80
2022-11-24T18:11:32.169Z,4.80
2022-11-24T18:14:03.808Z,4.70
2022-11-24T18:16:34.243Z,4.40
2022-11-24T18:19:09.394Z,4.50
2022-11-24T18:21:41.793Z,4.30
2022-11-24T18:24:11.015Z,4.50
2022-11-24T18:26:42.730Z,4.90
2022-11-24T18:29:11.510Z,4.50
2022-11-24T18:31:39.532Z,4.50
2022-11-24T18:34:07.001Z,4.60
2022-11-24T18:36:34.904Z,4.50
2022-11-24T18:39:08.425Z,4.70
2022-11-24T18:41:36.381Z,4.60
2022-11-24T18:44:07.905Z,4.60
2022-11-24T18:46:35.826Z,4.60
2022-11-24T18:49:02.777Z,4.70
2022-11-24T18:51:30.102Z,4.60
2022-11-24T18:53:58.313Z,4.50
2022-11-24T18:56:26.410Z,4.50
2022-11-24T18:58:55.376Z,5.20
2022-11-24T19:01:27.416Z,4.70
2022-11-24T19:03:57.860Z,4.40
2022-11-24T19:06:32.326Z,4.40
2022-11-24T19:09:05.587Z,4.40
2022-11-24T19:11:36.517Z,4.50
2022-11-24T19:14:06.107Z,4.20
2022-11-24T19:16:34.198Z,4.30
2022-11-24T19:19:02.784Z,4.30
2022-11-24T19:21:39.754Z,4.30
2022-11-24T19:24:11.158Z,4.30
2022-11-24T19:26:39.329Z,4.20
2022-11-24T19:29:08.874Z,4.20
2022-11-24T19:31:38.473Z,4.30
2022-11-24T19:34:07.959Z,4.30
2022-11-24T19:36:35.644Z,4.10
2022-11-24T19:39:05.111Z,4.50
2022-11-24T19:41:33.578Z,4.20
2022-11-24T19:44:01.794Z,3.90
2022-11-24T19:46:33.558Z,4.10
2022-11-24T19:49:02.373Z,3.90
2022-11-24T19:51:36.291Z,4.20
2022-11-24T19:54:06.821Z,3.90
2022-11-24T19:56:38.221Z,4.30
2022-11-24T19:59:06.488Z,4.10
2022-11-24T20:01:38.752Z,4.00
2022-11-24T20:04:15.545Z,4.30
2022-11-24T20:06:48.114Z,4.00
2022-11-24T20:09:18.473Z,4.20
2022-11-24T20:11:46.489Z,4.00
2022-11-24T20:14:16.445Z,4.30
2022-11-24T20:16:45.617Z,4.20
2022-11-24T20:19:14.966Z,4.20
2022-11-24T20:21:46.338Z,3.90
2022-11-24T20:24:23.806Z,3.90
2022-11-24T20:26:58.950Z,3.90
2022-11-24T20:29:28.425Z,3.70
2022-11-24T20:31:56.631Z,4.10
2022-11-24T20:34:24.837Z,3.80
2022-11-24T20:36:54.933Z,4.00
2022-11-24T20:39:27.955Z,3.70
2022-11-24T20:41:55.679Z,3.70
2022-11-24T20:44:26.440Z,3.70
2022-11-24T20:46:57.037Z,3.70
2022-11-24T20:49:24.180Z,3.70
2022-11-24T20:51:54.560Z,3.70
2022-11-24T20:54:22.057Z,3.70
2022-11-24T20:56:49.394Z,3.60
2022-11-24T20:59:21.619Z,3.50
2022-11-24T21:01:50.354Z,3.60
2022-11-24T21:04:22.812Z,3.50
2022-11-24T21:06:50.625Z,3.50
2022-11-24T21:09:17.837Z,3.40
2022-11-24T21:11:46.516Z,3.50
2022-11-24T21:14:14.262Z,3.20
2022-11-24T21:16:43.236Z,3.20
2022-11-24T21:19:14.388Z,3.00
2022-11-24T21:21:43.091Z,3.00
2022-11-24T21:24:22.431Z,2.90
2022-11-24T21:26:51.896Z,2.90
2022-11-24T21:29:23.358Z,3.00
2022-11-24T21:31:53.323Z,3.10
2022-11-24T21:34:20.506Z,2.90
2022-11-24T21:36:47.846Z,3.00
2022-11-24T21:39:15.688Z,2.90
2022-11-24T21:41:43.641Z,3.00
2022-11-24T21:44:14.926Z,3.00
2022-11-24T21:46:48.264Z,2.90
2022-11-24T21:49:18.374Z,2.80
2022-11-24T21:51:45.384Z,2.70
2022-11-24T21:54:28.580Z,2.80
2022-11-24T21:56:55.679Z,2.80
2022-11-24T21:59:22.880Z,2.60
2022-11-24T22:01:49.968Z,2.40
2022-11-24T22:04:17.126Z,2.60
2022-11-24T22:06:45.141Z,2.50
2022-11-24T22:09:17.555Z,2.60
2022-11-24T22:11:45.464Z,2.50
2022-11-24T22:14:12.530Z,2.40
2022-11-24T22:16:39.590Z,2.40
2022-11-24T22:19:06.678Z,2.50
2022-11-24T22:21:33.729Z,2.40
2022-11-24T22:24:03.586Z,2.50
2022-11-24T22:26:31.677Z,2.60
2022-11-24T22:28:59.150Z,2.50
2022-11-24T22:31:32.307Z,2.40
2022-11-24T22:34:00.777Z,2.60
2022-11-24T22:36:30.391Z,2.40
2022-11-24T22:39:03.953Z,2.50
2022-11-24T22:41:35.758Z,2.40
2022-11-24T22:44:03.038Z,2.00
2022-11-24T22:46:32.020Z,2.50
2022-11-24T22:49:01.130Z,2.50
2022-11-24T22:51:32.466Z,2.40
2022-11-24T22:54:02.440Z,2.50
2022-11-24T22:56:32.491Z,2.50
2022-11-24T22:59:04.589Z,2.50
2022-11-24T23:01:33.704Z,2.50
2022-11-24T23:04:01.290Z,2.50
2022-11-24T23:06:31.279Z,2.60
2022-11-24T23:09:02.252Z,2.50
2022-11-24T23:11:37.739Z,2.50
2022-11-24T23:14:08.292Z,2.50
2022-11-24T23:16:35.578Z,2.50
2022-11-24T23:19:02.917Z,2.60
2022-11-24T23:21:33.243Z,2.50
2022-11-24T23:24:03.536Z,2.50
2022-11-24T23:26:34.713Z,2.50
2022-11-24T23:29:02.624Z,2.50
2022-11-24T23:31:29.743Z,2.50
2022-11-24T23:34:02.800Z,2.60
2022-11-24T23:36:34.272Z,2.60
2022-11-24T23:39:12.148Z,2.70
2022-11-24T23:41:39.373Z,2.60
2022-11-24T23:44:07.352Z,2.80
2022-11-24T23:46:35.045Z,2.60
2022-11-24T23:49:01.999Z,2.60
2022-11-24T23:51:32.559Z,2.60
2022-11-24T23:54:00.743Z,2.50
2022-11-24T23:56:33.894Z,2.20
2022-11-24T23:59:04.580Z,2.00
